sensor_id;sensor_type;location;lat;lon;timestamp;P1;durP1;ratioP1;P2;durP2;ratioP2
67344;SDS011;54230;52.402;6.276;2022-09-04T00:00:03;5.4;;;2.7;;
67344;SDS011;54230;52.402;6.276;2022-09-04T00:05:01;5.7;;;2.8;;
67344;SDS011;54230;52.402;6.276;2022-09-04T00:10:02;5.8;;;2.8;;
67344;SDS011;54230;52.402;6.276;2022-09-04T00:15:02;5.7;;;3.1;;
67344;SDS011;54230;52.402;6.276;2022-09-04T00:20:00;7.4;;;2.9;;
67344;SDS011;54230;52.402;6.276;2022-09-04T00:25:03;4.4;;;2.9;;
67344;SDS011;54230;52.402;6.276;2022-09-04T00:30:01;5.2;;;2.8;;
67344;SDS011;54230;52.402;6.276;2022-09-04T00:35:03;5.5;;;3.2;;
67344;SDS011;54230;52.402;6.276;2022-09-04T00:40:01;7.5;;;3.4;;
67344;SDS011;54230;52.402;6.276;2022-09-04T00:45:03;5.6;;;3.2;;
67344;SDS011;54230;52.402;6.276;2022-09-04T00:55:05;10.0;;;3.8;;
67344;SDS011;54230;52.402;6.276;2022-09-04T01:00:05;5.8;;;3.4;;
67344;SDS011;54230;52.402;6.276;2022-09-04T01:05:01;5.9;;;3.6;;
67344;SDS011;54230;52.402;6.276;2022-09-04T01:10:03;6.5;;;3.3;;
67344;SDS011;54230;52.402;6.276;2022-09-04T01:15:02;7.3;;;3.7;;
67344;SDS011;54230;52.402;6.276;2022-09-04T01:20:01;6.0;;;3.7;;
67344;SDS011;54230;52.402;6.276;2022-09-04T01:25:02;6.4;;;3.6;;
67344;SDS011;54230;52.402;6.276;2022-09-04T01:30:03;6.6;;;3.7;;
67344;SDS011;54230;52.402;6.276;2022-09-04T01:35:01;9.1;;;4.0;;
67344;SDS011;54230;52.402;6.276;2022-09-04T01:40:03;7.9;;;4.1;;
67344;SDS011;54230;52.402;6.276;2022-09-04T01:45:00;8.4;;;4.0;;
67344;SDS011;54230;52.402;6.276;2022-09-04T01:50:00;11.0;;;4.2;;
67344;SDS011;54230;52.402;6.276;2022-09-04T01:55:02;7.6;;;4.4;;
67344;SDS011;54230;52.402;6.276;2022-09-04T02:00:05;8.1;;;4.3;;
67344;SDS011;54230;52.402;6.276;2022-09-04T02:05:00;7.4;;;4.3;;
67344;SDS011;54230;52.402;6.276;2022-09-04T02:10:03;9.1;;;4.4;;
67344;SDS011;54230;52.402;6.276;2022-09-04T02:15:02;7.6;;;4.4;;
67344;SDS011;54230;52.402;6.276;2022-09-04T02:20:02;7.5;;;4.8;;
67344;SDS011;54230;52.402;6.276;2022-09-04T02:25:03;9.4;;;4.7;;
67344;SDS011;54230;52.402;6.276;2022-09-04T02:30:00;7.9;;;4.9;;
67344;SDS011;54230;52.402;6.276;2022-09-04T02:35:01;8.7;;;5.5;;
67344;SDS011;54230;52.402;6.276;2022-09-04T02:40:02;8.7;;;5.2;;
67344;SDS011;54230;52.402;6.276;2022-09-04T02:45:04;8.6;;;5.3;;
67344;SDS011;54230;52.402;6.276;2022-09-04T02:50:02;9.3;;;5.7;;
67344;SDS011;54230;52.402;6.276;2022-09-04T02:55:03;10.7;;;5.7;;
67344;SDS011;54230;52.402;6.276;2022-09-04T03:00:00;11.3;;;6.4;;
67344;SDS011;54230;52.402;6.276;2022-09-04T03:05:00;10.4;;;5.5;;
67344;SDS011;54230;52.402;6.276;2022-09-04T03:10:03;11.6;;;6.3;;
67344;SDS011;54230;52.402;6.276;2022-09-04T03:15:02;11.1;;;6.1;;
67344;SDS011;54230;52.402;6.276;2022-09-04T03:20:01;10.9;;;6.7;;
67344;SDS011;54230;52.402;6.276;2022-09-04T03:25:02;11.6;;;7.0;;
67344;SDS011;54230;52.402;6.276;2022-09-04T03:30:02;12.3;;;7.2;;
67344;SDS011;54230;52.402;6.276;2022-09-04T03:35:02;10.8;;;7.4;;
67344;SDS011;54230;52.402;6.276;2022-09-04T03:40:02;11.9;;;7.4;;
67344;SDS011;54230;52.402;6.276;2022-09-04T03:45:03;11.4;;;7.3;;
67344;SDS011;54230;52.402;6.276;2022-09-04T03:50:02;13.6;;;6.9;;
67344;SDS011;54230;52.402;6.276;2022-09-04T03:55:04;10.8;;;7.2;;
67344;SDS011;54230;52.402;6.276;2022-09-04T04:00:03;11.3;;;7.1;;
67344;SDS011;54230;52.402;6.276;2022-09-04T04:10:02;14.8;;;6.2;;
67344;SDS011;54230;52.402;6.276;2022-09-04T04:15:01;10.4;;;6.2;;
67344;SDS011;54230;52.402;6.276;2022-09-04T04:20:02;8.9;;;5.7;;
67344;SDS011;54230;52.402;6.276;2022-09-04T04:25:02;9.3;;;5.8;;
67344;SDS011;54230;52.402;6.276;2022-09-04T04:30:03;10.7;;;5.6;;
67344;SDS011;54230;52.402;6.276;2022-09-04T04:35:03;9.4;;;5.3;;
67344;SDS011;54230;52.402;6.276;2022-09-04T04:40:01;8.5;;;5.5;;
67344;SDS011;54230;52.402;6.276;2022-09-04T04:45:03;9.1;;;5.7;;
67344;SDS011;54230;52.402;6.276;2022-09-04T04:50:03;7.1;;;5.1;;
67344;SDS011;54230;52.402;6.276;2022-09-04T04:55:02;9.1;;;5.4;;
67344;SDS011;54230;52.402;6.276;2022-09-04T05:00:03;9.5;;;5.5;;
67344;SDS011;54230;52.402;6.276;2022-09-04T05:05:01;8.9;;;5.6;;
67344;SDS011;54230;52.402;6.276;2022-09-04T05:10:02;8.9;;;5.2;;
67344;SDS011;54230;52.402;6.276;2022-09-04T05:15:02;9.4;;;5.4;;
67344;SDS011;54230;52.402;6.276;2022-09-04T05:25:02;8.3;;;5.3;;
67344;SDS011;54230;52.402;6.276;2022-09-04T05:30:01;9.6;;;5.5;;
67344;SDS011;54230;52.402;6.276;2022-09-04T05:35:03;7.9;;;5.5;;
67344;SDS011;54230;52.402;6.276;2022-09-04T05:40:01;9.4;;;5.6;;
67344;SDS011;54230;52.402;6.276;2022-09-04T05:45:00;9.4;;;5.2;;
67344;SDS011;54230;52.402;6.276;2022-09-04T05:50:03;7.0;;;5.1;;
67344;SDS011;54230;52.402;6.276;2022-09-04T05:55:04;9.5;;;5.3;;
67344;SDS011;54230;52.402;6.276;2022-09-04T06:00:02;8.9;;;5.4;;
67344;SDS011;54230;52.402;6.276;2022-09-04T06:05:04;8.0;;;5.2;;
67344;SDS011;54230;52.402;6.276;2022-09-04T06:10:02;7.2;;;5.5;;
67344;SDS011;54230;52.402;6.276;2022-09-04T06:15:02;10.0;;;5.4;;
67344;SDS011;54230;52.402;6.276;2022-09-04T06:20:04;9.9;;;5.2;;
67344;SDS011;54230;52.402;6.276;2022-09-04T06:25:07;8.2;;;5.3;;
67344;SDS011;54230;52.402;6.276;2022-09-04T06:30:02;8.7;;;5.2;;
67344;SDS011;54230;52.402;6.276;2022-09-04T06:35:04;7.4;;;5.3;;
67344;SDS011;54230;52.402;6.276;2022-09-04T06:40:05;8.3;;;5.3;;
67344;SDS011;54230;52.402;6.276;2022-09-04T06:45:03;8.1;;;5.5;;
67344;SDS011;54230;52.402;6.276;2022-09-04T06:50:07;8.1;;;5.6;;
67344;SDS011;54230;52.402;6.276;2022-09-04T06:55:03;10.7;;;5.5;;
67344;SDS011;54230;52.402;6.276;2022-09-04T07:00:01;10.8;;;5.6;;
67344;SDS011;54230;52.402;6.276;2022-09-04T07:05:02;10.5;;;6.0;;
67344;SDS011;54230;52.402;6.276;2022-09-04T07:10:01;10.4;;;6.0;;
67344;SDS011;54230;52.402;6.276;2022-09-04T07:20:04;14.6;;;6.8;;
67344;SDS011;54230;52.402;6.276;2022-09-04T07:25:03;9.1;;;6.5;;
67344;SDS011;54230;52.402;6.276;2022-09-04T07:30:00;11.2;;;6.9;;
67344;SDS011;54230;52.402;6.276;2022-09-04T07:35:01;12.1;;;7.2;;
67344;SDS011;54230;52.402;6.276;2022-09-04T07:40:03;11.9;;;7.4;;
67344;SDS011;54230;52.402;6.276;2022-09-04T07:45:01;10.2;;;7.4;;
67344;SDS011;54230;52.402;6.276;2022-09-04T07:50:02;10.0;;;7.6;;
67344;SDS011;54230;52.402;6.276;2022-09-04T07:55:03;11.3;;;7.5;;
67344;SDS011;54230;52.402;6.276;2022-09-04T08:00:01;12.0;;;8.4;;
67344;SDS011;54230;52.402;6.276;2022-09-04T08:05:04;17.0;;;8.4;;
67344;SDS011;54230;52.402;6.276;2022-09-04T08:10:05;12.3;;;8.4;;
67344;SDS011;54230;52.402;6.276;2022-09-04T08:15:02;12.5;;;8.2;;
67344;SDS011;54230;52.402;6.276;2022-09-04T08:20:00;13.3;;;8.2;;
67344;SDS011;54230;52.402;6.276;2022-09-04T08:25:03;11.4;;;8.2;;
67344;SDS011;54230;52.402;6.276;2022-09-04T08:30:01;11.2;;;7.9;;
67344;SDS011;54230;52.402;6.276;2022-09-04T08:35:02;13.0;;;8.2;;
67344;SDS011;54230;52.402;6.276;2022-09-04T08:40:03;13.3;;;8.0;;
67344;SDS011;54230;52.402;6.276;2022-09-04T08:50:06;10.8;;;7.5;;
67344;SDS011;54230;52.402;6.276;2022-09-04T08:55:05;12.7;;;7.8;;
67344;SDS011;54230;52.402;6.276;2022-09-04T09:00:03;11.8;;;7.5;;
67344;SDS011;54230;52.402;6.276;2022-09-04T09:10:07;14.1;;;7.1;;
67344;SDS011;54230;52.402;6.276;2022-09-04T09:15:07;9.6;;;6.7;;
67344;SDS011;54230;52.402;6.276;2022-09-04T09:20:04;10.3;;;7.0;;
67344;SDS011;54230;52.402;6.276;2022-09-04T09:25:09;9.0;;;6.5;;
67344;SDS011;54230;52.402;6.276;2022-09-04T09:30:02;11.0;;;6.4;;
67344;SDS011;54230;52.402;6.276;2022-09-04T09:45:02;6.9;;;4.6;;
67344;SDS011;54230;52.402;6.276;2022-09-04T10:00:03;7.0;;;4.9;;
67344;SDS011;54230;52.402;6.276;2022-09-04T10:10:05;8.9;;;4.4;;
67344;SDS011;54230;52.402;6.276;2022-09-04T10:15:07;6.6;;;4.7;;
67344;SDS011;54230;52.402;6.276;2022-09-04T10:30:02;5.8;;;3.4;;
67344;SDS011;54230;52.402;6.276;2022-09-04T10:35:05;7.4;;;4.2;;
67344;SDS011;54230;52.402;6.276;2022-09-04T10:40:03;5.7;;;4.0;;
67344;SDS011;54230;52.402;6.276;2022-09-04T10:50:03;8.9;;;4.2;;
67344;SDS011;54230;52.402;6.276;2022-09-04T11:00:02;6.2;;;4.2;;
67344;SDS011;54230;52.402;6.276;2022-09-04T11:05:07;7.4;;;4.5;;
67344;SDS011;54230;52.402;6.276;2022-09-04T11:10:06;5.8;;;4.2;;
67344;SDS011;54230;52.402;6.276;2022-09-04T11:15:03;8.0;;;4.6;;
67344;SDS011;54230;52.402;6.276;2022-09-04T11:20:08;6.9;;;4.5;;
67344;SDS011;54230;52.402;6.276;2022-09-04T11:25:08;8.2;;;5.4;;
67344;SDS011;54230;52.402;6.276;2022-09-04T11:30:01;8.3;;;5.7;;
67344;SDS011;54230;52.402;6.276;2022-09-04T11:40:02;8.9;;;6.2;;
67344;SDS011;54230;52.402;6.276;2022-09-04T11:50:06;7.7;;;5.3;;
67344;SDS011;54230;52.402;6.276;2022-09-04T11:55:08;8.4;;;5.1;;
67344;SDS011;54230;52.402;6.276;2022-09-04T12:00:03;8.2;;;4.9;;
67344;SDS011;54230;52.402;6.276;2022-09-04T12:05:03;9.1;;;4.6;;
67344;SDS011;54230;52.402;6.276;2022-09-04T12:10:05;7.4;;;4.1;;
67344;SDS011;54230;52.402;6.276;2022-09-04T12:15:08;8.0;;;4.2;;
67344;SDS011;54230;52.402;6.276;2022-09-04T12:20:08;6.3;;;3.7;;
67344;SDS011;54230;52.402;6.276;2022-09-04T12:25:04;5.6;;;3.6;;
67344;SDS011;54230;52.402;6.276;2022-09-04T12:30:03;6.1;;;4.1;;
67344;SDS011;54230;52.402;6.276;2022-09-04T12:35:07;8.8;;;4.2;;
67344;SDS011;54230;52.402;6.276;2022-09-04T12:40:05;7.5;;;3.8;;
67344;SDS011;54230;52.402;6.276;2022-09-04T12:45:01;6.1;;;3.7;;
67344;SDS011;54230;52.402;6.276;2022-09-04T12:50:03;5.5;;;3.5;;
67344;SDS011;54230;52.402;6.276;2022-09-04T12:55:02;9.4;;;3.8;;
67344;SDS011;54230;52.402;6.276;2022-09-04T13:00:02;5.0;;;3.4;;
67344;SDS011;54230;52.402;6.276;2022-09-04T13:05:03;6.4;;;3.5;;
67344;SDS011;54230;52.402;6.276;2022-09-04T13:10:02;6.3;;;3.7;;
67344;SDS011;54230;52.402;6.276;2022-09-04T13:20:02;6.2;;;3.7;;
67344;SDS011;54230;52.402;6.276;2022-09-04T13:25:02;6.7;;;4.0;;
67344;SDS011;54230;52.402;6.276;2022-09-04T13:30:03;5.4;;;3.2;;
67344;SDS011;54230;52.402;6.276;2022-09-04T13:35:02;5.4;;;3.2;;
67344;SDS011;54230;52.402;6.276;2022-09-04T13:40:07;7.8;;;3.2;;
67344;SDS011;54230;52.402;6.276;2022-09-04T13:45:02;5.7;;;3.6;;
67344;SDS011;54230;52.402;6.276;2022-09-04T13:50:02;5.3;;;3.3;;
67344;SDS011;54230;52.402;6.276;2022-09-04T13:55:00;3.9;;;2.7;;
67344;SDS011;54230;52.402;6.276;2022-09-04T14:00:00;6.9;;;3.2;;
67344;SDS011;54230;52.402;6.276;2022-09-04T14:05:00;7.3;;;3.2;;
67344;SDS011;54230;52.402;6.276;2022-09-04T14:10:00;4.5;;;2.9;;
67344;SDS011;54230;52.402;6.276;2022-09-04T14:15:05;5.3;;;2.8;;
67344;SDS011;54230;52.402;6.276;2022-09-04T14:20:01;5.0;;;3.0;;
67344;SDS011;54230;52.402;6.276;2022-09-04T14:25:02;5.2;;;2.8;;
67344;SDS011;54230;52.402;6.276;2022-09-04T14:30:01;6.5;;;3.0;;
67344;SDS011;54230;52.402;6.276;2022-09-04T14:35:02;4.7;;;3.1;;
67344;SDS011;54230;52.402;6.276;2022-09-04T14:40:00;4.1;;;2.7;;
67344;SDS011;54230;52.402;6.276;2022-09-04T14:45:03;5.9;;;2.6;;
67344;SDS011;54230;52.402;6.276;2022-09-04T14:50:00;5.3;;;2.6;;
67344;SDS011;54230;52.402;6.276;2022-09-04T14:55:00;4.0;;;2.7;;
67344;SDS011;54230;52.402;6.276;2022-09-04T15:00:02;4.6;;;2.9;;
67344;SDS011;54230;52.402;6.276;2022-09-04T15:05:00;5.8;;;3.0;;
67344;SDS011;54230;52.402;6.276;2022-09-04T15:10:04;4.4;;;2.9;;
67344;SDS011;54230;52.402;6.276;2022-09-04T15:15:02;4.6;;;2.9;;
67344;SDS011;54230;52.402;6.276;2022-09-04T15:20:00;5.2;;;3.1;;
67344;SDS011;54230;52.402;6.276;2022-09-04T15:25:01;5.5;;;3.1;;
67344;SDS011;54230;52.402;6.276;2022-09-04T15:30:02;5.0;;;2.8;;
67344;SDS011;54230;52.402;6.276;2022-09-04T15:40:01;5.6;;;3.0;;
67344;SDS011;54230;52.402;6.276;2022-09-04T15:45:00;4.2;;;2.8;;
67344;SDS011;54230;52.402;6.276;2022-09-04T15:50:00;3.9;;;2.6;;
67344;SDS011;54230;52.402;6.276;2022-09-04T15:55:03;5.8;;;2.5;;
67344;SDS011;54230;52.402;6.276;2022-09-04T16:00:00;4.1;;;2.7;;
67344;SDS011;54230;52.402;6.276;2022-09-04T16:05:01;5.0;;;2.9;;
67344;SDS011;54230;52.402;6.276;2022-09-04T16:10:02;5.6;;;2.9;;
67344;SDS011;54230;52.402;6.276;2022-09-04T16:15:00;7.2;;;3.1;;
67344;SDS011;54230;52.402;6.276;2022-09-04T16:20:02;5.9;;;3.5;;
67344;SDS011;54230;52.402;6.276;2022-09-04T16:25:04;3.9;;;2.5;;
67344;SDS011;54230;52.402;6.276;2022-09-04T16:30:00;4.9;;;2.5;;
67344;SDS011;54230;52.402;6.276;2022-09-04T16:35:00;4.8;;;2.7;;
67344;SDS011;54230;52.402;6.276;2022-09-04T16:40:03;5.8;;;2.6;;
67344;SDS011;54230;52.402;6.276;2022-09-04T16:45:01;4.2;;;2.7;;
67344;SDS011;54230;52.402;6.276;2022-09-04T16:50:01;4.2;;;2.6;;
67344;SDS011;54230;52.402;6.276;2022-09-04T16:55:02;5.5;;;2.6;;
67344;SDS011;54230;52.402;6.276;2022-09-04T17:00:00;5.1;;;2.6;;
67344;SDS011;54230;52.402;6.276;2022-09-04T17:05:00;4.3;;;2.5;;
67344;SDS011;54230;52.402;6.276;2022-09-04T17:10:01;5.3;;;2.8;;
67344;SDS011;54230;52.402;6.276;2022-09-04T17:15:00;7.7;;;2.6;;
67344;SDS011;54230;52.402;6.276;2022-09-04T17:20:01;3.5;;;2.5;;
67344;SDS011;54230;52.402;6.276;2022-09-04T17:25:03;5.3;;;2.7;;
67344;SDS011;54230;52.402;6.276;2022-09-04T17:30:00;5.2;;;2.5;;
67344;SDS011;54230;52.402;6.276;2022-09-04T17:35:00;4.0;;;2.7;;
67344;SDS011;54230;52.402;6.276;2022-09-04T17:40:01;4.7;;;2.6;;
67344;SDS011;54230;52.402;6.276;2022-09-04T17:45:02;5.4;;;2.8;;
67344;SDS011;54230;52.402;6.276;2022-09-04T17:50:00;5.6;;;3.0;;
67344;SDS011;54230;52.402;6.276;2022-09-04T17:55:02;5.3;;;2.9;;
67344;SDS011;54230;52.402;6.276;2022-09-04T18:00:01;7.0;;;3.0;;
67344;SDS011;54230;52.402;6.276;2022-09-04T18:05:01;8.7;;;2.9;;
67344;SDS011;54230;52.402;6.276;2022-09-04T18:10:05;6.0;;;2.9;;
67344;SDS011;54230;52.402;6.276;2022-09-04T18:15:02;5.8;;;2.7;;
67344;SDS011;54230;52.402;6.276;2022-09-04T18:20:03;5.5;;;2.7;;
67344;SDS011;54230;52.402;6.276;2022-09-04T18:25:01;5.2;;;2.9;;
67344;SDS011;54230;52.402;6.276;2022-09-04T18:30:00;5.8;;;2.7;;
67344;SDS011;54230;52.402;6.276;2022-09-04T18:35:02;6.0;;;2.9;;
67344;SDS011;54230;52.402;6.276;2022-09-04T18:40:03;7.3;;;3.4;;
67344;SDS011;54230;52.402;6.276;2022-09-04T18:45:01;7.2;;;3.2;;
67344;SDS011;54230;52.402;6.276;2022-09-04T18:50:00;6.9;;;3.4;;
67344;SDS011;54230;52.402;6.276;2022-09-04T18:55:00;8.9;;;3.6;;
67344;SDS011;54230;52.402;6.276;2022-09-04T19:00:02;6.9;;;3.7;;
67344;SDS011;54230;52.402;6.276;2022-09-04T19:05:00;7.9;;;4.2;;
67344;SDS011;54230;52.402;6.276;2022-09-04T19:10:02;9.3;;;4.3;;
67344;SDS011;54230;52.402;6.276;2022-09-04T19:15:00;7.1;;;3.9;;
67344;SDS011;54230;52.402;6.276;2022-09-04T19:20:00;9.3;;;4.4;;
67344;SDS011;54230;52.402;6.276;2022-09-04T19:25:01;7.4;;;4.5;;
67344;SDS011;54230;52.402;6.276;2022-09-04T19:30:01;8.2;;;4.6;;
67344;SDS011;54230;52.402;6.276;2022-09-04T19:35:02;8.7;;;4.5;;
67344;SDS011;54230;52.402;6.276;2022-09-04T19:40:01;10.0;;;4.4;;
67344;SDS011;54230;52.402;6.276;2022-09-04T19:45:00;9.8;;;4.5;;
67344;SDS011;54230;52.402;6.276;2022-09-04T19:50:04;8.5;;;4.7;;
67344;SDS011;54230;52.402;6.276;2022-09-04T19:55:01;10.8;;;4.8;;
67344;SDS011;54230;52.402;6.276;2022-09-04T20:00:03;10.7;;;4.5;;
67344;SDS011;54230;52.402;6.276;2022-09-04T20:05:00;8.0;;;4.7;;
67344;SDS011;54230;52.402;6.276;2022-09-04T20:10:00;9.1;;;4.7;;
67344;SDS011;54230;52.402;6.276;2022-09-04T20:15:00;12.5;;;5.2;;
67344;SDS011;54230;52.402;6.276;2022-09-04T20:20:00;9.3;;;4.7;;
67344;SDS011;54230;52.402;6.276;2022-09-04T20:25:07;13.9;;;5.6;;
67344;SDS011;54230;52.402;6.276;2022-09-04T20:30:00;16.4;;;6.0;;
67344;SDS011;54230;52.402;6.276;2022-09-04T20:35:01;10.5;;;5.9;;
67344;SDS011;54230;52.402;6.276;2022-09-04T20:40:03;11.8;;;6.0;;
67344;SDS011;54230;52.402;6.276;2022-09-04T20:45:01;11.1;;;5.9;;
67344;SDS011;54230;52.402;6.276;2022-09-04T20:50:03;11.0;;;6.2;;
67344;SDS011;54230;52.402;6.276;2022-09-04T21:00:00;11.5;;;6.3;;
67344;SDS011;54230;52.402;6.276;2022-09-04T21:05:16;14.9;;;6.7;;
67344;SDS011;54230;52.402;6.276;2022-09-04T21:10:03;11.6;;;7.0;;
67344;SDS011;54230;52.402;6.276;2022-09-04T21:15:02;12.4;;;7.2;;
67344;SDS011;54230;52.402;6.276;2022-09-04T21:20:03;16.3;;;7.4;;
67344;SDS011;54230;52.402;6.276;2022-09-04T21:30:03;11.5;;;7.6;;
67344;SDS011;54230;52.402;6.276;2022-09-04T21:35:00;13.6;;;7.7;;
67344;SDS011;54230;52.402;6.276;2022-09-04T21:45:11;13.7;;;7.8;;
67344;SDS011;54230;52.402;6.276;2022-09-04T21:55:01;11.4;;;8.4;;
67344;SDS011;54230;52.402;6.276;2022-09-04T22:00:08;12.2;;;8.6;;
67344;SDS011;54230;52.402;6.276;2022-09-04T22:05:02;13.7;;;8.5;;
67344;SDS011;54230;52.402;6.276;2022-09-04T22:10:03;13.2;;;9.1;;
67344;SDS011;54230;52.402;6.276;2022-09-04T22:15:01;16.8;;;9.4;;
67344;SDS011;54230;52.402;6.276;2022-09-04T22:20:04;13.6;;;9.5;;
67344;SDS011;54230;52.402;6.276;2022-09-04T22:30:03;13.4;;;9.7;;
67344;SDS011;54230;52.402;6.276;2022-09-04T22:40:04;14.3;;;10.1;;
67344;SDS011;54230;52.402;6.276;2022-09-04T22:45:04;15.0;;;10.3;;
67344;SDS011;54230;52.402;6.276;2022-09-04T22:50:04;15.4;;;10.9;;
67344;SDS011;54230;52.402;6.276;2022-09-04T22:55:02;15.1;;;11.2;;
67344;SDS011;54230;52.402;6.276;2022-09-04T23:00:04;16.0;;;11.4;;
67344;SDS011;54230;52.402;6.276;2022-09-04T23:05:03;16.0;;;11.5;;
67344;SDS011;54230;52.402;6.276;2022-09-04T23:10:02;16.9;;;12.3;;
67344;SDS011;54230;52.402;6.276;2022-09-04T23:15:03;18.0;;;12.3;;
67344;SDS011;54230;52.402;6.276;2022-09-04T23:20:02;15.8;;;12.6;;
67344;SDS011;54230;52.402;6.276;2022-09-04T23:25:04;16.6;;;12.4;;
67344;SDS011;54230;52.402;6.276;2022-09-04T23:30:03;15.4;;;12.4;;
67344;SDS011;54230;52.402;6.276;2022-09-04T23:35:10;20.1;;;11.9;;
67344;SDS011;54230;52.402;6.276;2022-09-04T23:40:06;16.6;;;11.9;;
67344;SDS011;54230;52.402;6.276;2022-09-04T23:45:05;14.7;;;12.4;;
67344;SDS011;54230;52.402;6.276;2022-09-04T23:50:00;17.6;;;13.1;;
